Time;durP1;ratioP1;P1;durP2;ratioP2;P2;SDS_P1;SDS_P2;PMS_P1;PMS_P2;Temp;Humidity;BMP_temperature;BMP_pressure;BME280_temperature;BME280_humidity;BME280_pressure;Samples;Min_cycle;Max_cycle;Signal;HPM_P1;HPM_P2
2022/10/18 00:01:12;;;;;;;;;;;12.30;99.90;;;;;;5108504;28;1105;-64
2022/10/18 00:03:38;;;;;;;;;;;12.30;99.90;;;;;;5108672;28;1793;-64
2022/10/18 00:06:04;;;;;;;;;;;12.30;99.90;;;;;;5110086;28;1217;-64
2022/10/18 00:08:30;;;;;;;;;;;12.30;99.90;;;;;;5108495;28;1016;-64
2022/10/18 00:10:56;;;;;;;;;;;12.30;99.90;;;;;;5109953;28;1094;-64
2022/10/18 00:13:22;;;;;;;;;;;12.30;99.90;;;;;;5110256;28;1099;-65
2022/10/18 00:15:50;;;;;;;;;;;12.30;99.90;;;;;;5108985;28;1006;-64
2022/10/18 00:18:16;;;;;;;;;;;12.30;99.90;;;;;;5109461;28;1197;-64
2022/10/18 00:20:42;;;;;;;;;;;12.30;99.90;;;;;;5109981;28;1005;-65
2022/10/18 00:23:07;;;;;;;;;;;12.40;99.90;;;;;;5109065;28;1124;-64
2022/10/18 00:25:33;;;;;;;;;;;12.40;99.90;;;;;;5109259;28;1151;-65
2022/10/18 00:27:58;;;;;;;;;;;12.40;99.90;;;;;;5109713;28;1129;-65
2022/10/18 00:30:24;;;;;;;;;;;12.50;99.90;;;;;;5108702;28;992;-65
2022/10/18 00:32:49;;;;;;;;;;;12.50;99.90;;;;;;5109663;28;1167;-64
2022/10/18 00:35:15;;;;;;;;;;;12.60;99.90;;;;;;5108210;28;1129;-64
2022/10/18 00:37:41;;;;;;;;;;;12.60;99.90;;;;;;5109173;28;1972;-64
2022/10/18 00:40:07;;;;;;;;;;;12.70;99.90;;;;;;5109660;28;1072;-65
2022/10/18 00:42:33;;;;;;;;;;;12.70;99.90;;;;;;5108973;28;1174;-65
2022/10/18 00:45:06;;;;;;;;;;;12.70;99.90;;;;;;5109052;28;1254;-65
2022/10/18 00:47:33;;;;;;;;;;;12.80;99.90;;;;;;5109210;28;1622;-65
2022/10/18 00:50:00;;;;;;;;;;;12.80;99.90;;;;;;5108927;28;1265;-64
2022/10/18 00:52:30;;;;;;;;;;;12.80;99.90;;;;;;5108722;28;1122;-65
2022/10/18 00:54:56;;;;;;;;;;;12.80;99.90;;;;;;5109478;28;1166;-65
2022/10/18 00:57:22;;;;;;;;;;;12.80;99.90;;;;;;5108873;28;1937;-65
2022/10/18 00:59:48;;;;;;;;;;;12.90;99.90;;;;;;5109149;28;1110;-65
2022/10/18 01:02:17;;;;;;;;;;;12.90;99.90;;;;;;5109032;28;1084;-64
2022/10/18 01:04:43;;;;;;;;;;;12.90;99.90;;;;;;5108831;28;1099;-65
2022/10/18 01:07:15;;;;;;;;;;;12.90;99.90;;;;;;5107627;28;1095;-65
2022/10/18 01:09:42;;;;;;;;;;;12.90;99.90;;;;;;5109655;28;1155;-65
2022/10/18 01:12:14;;;;;;;;;;;13.00;99.90;;;;;;5107950;28;1157;-65
2022/10/18 01:14:52;;;;;;;;;;;13.00;99.90;;;;;;5124834;28;1078;-65
2022/10/18 01:17:38;;;;;;;;;;;13.00;99.90;;;;;;5108525;28;1992;-65
2022/10/18 01:20:06;;;;;;;;;;;13.00;99.90;;;;;;5108322;28;1870;-65
2022/10/18 01:22:38;;;;;;;;;;;13.00;99.90;;;;;;5108863;28;1080;-65
2022/10/18 01:25:15;;;;;;;;;;;13.00;99.90;;;;;;5105262;28;1124;-65
2022/10/18 01:27:51;;;;;;;;;;;13.00;99.90;;;;;;5108746;28;1115;-65
2022/10/18 01:30:19;;;;;;;;;;;12.90;99.90;;;;;;5108821;28;1124;-65
2022/10/18 01:32:48;;;;;;;;;;;12.90;99.90;;;;;;5108358;28;1102;-65
2022/10/18 01:35:16;;;;;;;;;;;12.90;99.90;;;;;;5109247;28;1096;-65
2022/10/18 01:37:43;;;;;;;;;;;12.90;99.90;;;;;;5108359;28;1913;-65
2022/10/18 01:40:11;;;;;;;;;;;12.80;99.90;;;;;;5101486;28;1211;-65
2022/10/18 01:42:36;;;;;;;;;;;12.80;99.90;;;;;;5107647;28;1154;-65
2022/10/18 01:45:03;;;;;;;;;;;12.80;99.90;;;;;;5111337;28;1289;-65
2022/10/18 01:47:29;;;;;;;;;;;12.80;99.90;;;;;;5107811;28;1384;-64
2022/10/18 01:49:59;;;;;;;;;;;12.70;99.90;;;;;;5128313;27;1101;-65
2022/10/18 01:52:25;;;;;;;;;;;12.70;99.90;;;;;;5112111;28;959;-65
2022/10/18 01:54:51;;;;;;;;;;;12.60;99.90;;;;;;5111960;28;1147;-65
2022/10/18 01:57:29;;;;;;;;;;;12.60;99.90;;;;;;5094141;28;1988;-65
2022/10/18 01:59:58;;;;;;;;;;;12.50;99.90;;;;;;5127331;27;1045;-65
2022/10/18 02:02:42;;;;;;;;;;;12.50;99.90;;;;;;5112525;28;1198;-65
2022/10/18 02:05:18;;;;;;;;;;;12.40;99.90;;;;;;5127916;27;1180;-65
2022/10/18 02:07:49;;;;;;;;;;;12.40;99.90;;;;;;5111044;28;1126;-65
2022/10/18 02:10:20;;;;;;;;;;;12.30;99.90;;;;;;5112151;28;1365;-65
2022/10/18 02:12:47;;;;;;;;;;;12.20;99.90;;;;;;5111909;28;1125;-65
2022/10/18 02:15:16;;;;;;;;;;;12.20;99.90;;;;;;5111078;28;1112;-65
2022/10/18 02:17:43;;;;;;;;;;;12.20;99.90;;;;;;5112256;28;1918;-65
2022/10/18 02:20:09;;;;;;;;;;;12.10;99.90;;;;;;5110525;28;1920;-65
2022/10/18 02:22:35;;;;;;;;;;;12.00;99.90;;;;;;5110747;28;999;-64
2022/10/18 02:25:03;;;;;;;;;;;12.00;99.90;;;;;;5110440;28;1083;-65
2022/10/18 02:27:29;;;;;;;;;;;11.90;99.90;;;;;;5111879;28;1111;-64
2022/10/18 02:29:55;;;;;;;;;;;11.90;99.90;;;;;;5110258;28;1174;-64
2022/10/18 02:32:30;;;;;;;;;;;11.90;99.90;;;;;;5093794;28;1068;-65
2022/10/18 02:34:59;;;;;;;;;;;11.90;99.90;;;;;;5111154;28;1103;-64
2022/10/18 02:37:29;;;;;;;;;;;11.90;99.90;;;;;;5111436;28;1910;-65
2022/10/18 02:39:54;;;;;;;;;;;11.90;99.90;;;;;;5110859;28;1183;-64
2022/10/18 02:42:21;;;;;;;;;;;11.90;99.90;;;;;;5111160;28;1115;-64
2022/10/18 02:44:46;;;;;;;;;;;11.90;99.90;;;;;;5111285;28;1128;-65
2022/10/18 02:47:12;;;;;;;;;;;11.90;99.90;;;;;;5110295;28;1559;-65
2022/10/18 02:49:37;;;;;;;;;;;12.00;99.90;;;;;;5107459;28;1120;-65
2022/10/18 02:52:03;;;;;;;;;;;12.00;99.90;;;;;;5111209;28;1099;-65
2022/10/18 02:54:29;;;;;;;;;;;12.10;99.90;;;;;;5111366;28;1108;-65
2022/10/18 02:56:54;;;;;;;;;;;12.10;99.90;;;;;;5102503;28;2035;-65
2022/10/18 02:59:20;;;;;;;;;;;12.10;99.90;;;;;;5109681;28;1082;-65
2022/10/18 03:01:46;;;;;;;;;;;12.10;99.90;;;;;;5111450;28;1198;-65
2022/10/18 03:04:11;;;;;;;;;;;12.20;99.90;;;;;;5110736;28;1112;-65
2022/10/18 03:06:37;;;;;;;;;;;12.20;99.90;;;;;;5110816;28;1156;-65
2022/10/18 03:09:04;;;;;;;;;;;12.30;99.90;;;;;;5111141;28;1095;-65
2022/10/18 03:11:30;;;;;;;;;;;12.30;99.90;;;;;;5110529;28;1151;-65
2022/10/18 03:13:55;;;;;;;;;;;12.40;99.90;;;;;;5110555;28;1140;-65
2022/10/18 03:16:21;;;;;;;;;;;12.50;99.90;;;;;;5109463;28;1925;-65
2022/10/18 03:18:47;;;;;;;;;;;12.60;99.90;;;;;;5110251;28;1119;-65
2022/10/18 03:21:12;;;;;;;;;;;12.60;99.90;;;;;;5109071;28;1154;-64
2022/10/18 03:23:40;;;;;;;;;;;12.60;99.90;;;;;;5110329;28;1155;-65
2022/10/18 03:26:06;;;;;;;;;;;12.60;99.90;;;;;;5108974;28;1170;-64
2022/10/18 03:28:31;;;;;;;;;;;12.70;99.90;;;;;;5110512;28;1003;-64
2022/10/18 03:31:00;;;;;;;;;;;12.70;99.90;;;;;;5110054;28;1048;-65
2022/10/18 03:33:25;;;;;;;;;;;12.70;99.90;;;;;;5097080;28;1297;-65
2022/10/18 03:35:51;;;;;;;;;;;12.70;99.90;;;;;;5108774;28;1084;-65
2022/10/18 03:38:16;;;;;;;;;;;12.60;99.90;;;;;;5109521;27;1967;-65
2022/10/18 03:40:42;;;;;;;;;;;12.70;99.90;;;;;;5110183;28;1063;-65
2022/10/18 03:43:08;;;;;;;;;;;12.70;99.90;;;;;;5110381;28;1028;-65
2022/10/18 03:45:33;;;;;;;;;;;12.70;99.90;;;;;;5108685;28;1408;-65
2022/10/18 03:47:59;;;;;;;;;;;12.70;99.90;;;;;;5096674;28;1336;-65
2022/10/18 03:50:24;;;;;;;;;;;12.70;99.90;;;;;;5125315;27;1158;-65
2022/10/18 03:52:50;;;;;;;;;;;12.60;99.90;;;;;;5109589;28;1087;-65
2022/10/18 03:55:16;;;;;;;;;;;12.50;99.90;;;;;;5110389;28;1258;-65
2022/10/18 03:57:41;;;;;;;;;;;12.40;99.90;;;;;;5109952;28;1906;-65
2022/10/18 04:00:08;;;;;;;;;;;12.40;99.90;;;;;;5109256;28;1157;-65
2022/10/18 04:02:37;;;;;;;;;;;12.40;99.90;;;;;;5110076;28;1151;-65
2022/10/18 04:05:03;;;;;;;;;;;12.30;99.90;;;;;;5109996;28;1186;-65
2022/10/18 04:07:29;;;;;;;;;;;12.30;99.90;;;;;;5108544;28;1116;-65
2022/10/18 04:09:54;;;;;;;;;;;12.30;99.90;;;;;;5110249;28;1112;-65
2022/10/18 04:12:20;;;;;;;;;;;12.30;99.90;;;;;;5109777;28;1198;-65
2022/10/18 04:14:45;;;;;;;;;;;12.30;99.90;;;;;;5107791;28;1095;-65
2022/10/18 04:17:11;;;;;;;;;;;12.40;99.90;;;;;;5109567;28;1921;-65
2022/10/18 04:19:37;;;;;;;;;;;12.40;99.90;;;;;;5109573;28;1100;-65
2022/10/18 04:22:02;;;;;;;;;;;12.30;99.90;;;;;;5109232;28;1108;-65
2022/10/18 04:24:28;;;;;;;;;;;12.30;99.90;;;;;;5109427;28;1107;-65
2022/10/18 04:26:54;;;;;;;;;;;12.40;99.90;;;;;;5109339;28;1253;-65
2022/10/18 04:29:19;;;;;;;;;;;12.40;99.90;;;;;;5108907;28;1337;-65
2022/10/18 04:31:45;;;;;;;;;;;12.50;99.90;;;;;;5110062;28;1062;-65
2022/10/18 04:34:11;;;;;;;;;;;12.40;99.90;;;;;;5108659;28;1139;-65
2022/10/18 04:36:36;;;;;;;;;;;12.40;99.90;;;;;;5107556;28;1918;-65
2022/10/18 04:39:02;;;;;;;;;;;12.40;99.90;;;;;;5109725;28;1150;-65
2022/10/18 04:41:28;;;;;;;;;;;12.30;99.90;;;;;;5108472;28;1150;-65
2022/10/18 04:43:53;;;;;;;;;;;12.30;99.90;;;;;;5105788;28;1189;-65
2022/10/18 04:46:19;;;;;;;;;;;12.20;99.90;;;;;;5108529;28;1209;-65
2022/10/18 04:48:44;;;;;;;;;;;12.30;99.90;;;;;;5108632;28;1096;-65
2022/10/18 04:51:10;;;;;;;;;;;12.30;99.90;;;;;;5107510;28;1242;-65
2022/10/18 04:53:35;;;;;;;;;;;12.30;99.90;;;;;;5109634;28;1088;-65
2022/10/18 04:56:01;;;;;;;;;;;12.20;99.90;;;;;;5108881;28;1152;-65
2022/10/18 04:58:27;;;;;;;;;;;12.50;99.90;;;;;;5109219;28;1662;-65
2022/10/18 05:00:52;;;;;;;;;;;12.20;99.90;;;;;;5109371;28;1096;-65
2022/10/18 05:03:18;;;;;;;;;;;12.20;99.90;;;;;;5108685;28;976;-65
2022/10/18 05:05:44;;;;;;;;;;;12.20;99.90;;;;;;5109182;28;1219;-65
2022/10/18 05:08:10;;;;;;;;;;;12.20;99.90;;;;;;5107626;28;1080;-65
2022/10/18 05:10:36;;;;;;;;;;;12.10;99.90;;;;;;5108345;28;1123;-65
2022/10/18 05:13:02;;;;;;;;;;;12.10;99.90;;;;;;5109260;28;1085;-65
2022/10/18 05:15:27;;;;;;;;;;;12.10;99.90;;;;;;5109372;28;1155;-65
2022/10/18 05:17:53;;;;;;;;;;;12.10;99.90;;;;;;5108132;28;1910;-65
2022/10/18 05:20:19;;;;;;;;;;;12.10;99.90;;;;;;5112221;28;1151;-65
2022/10/18 05:22:44;;;;;;;;;;;12.10;99.90;;;;;;5113158;28;1186;-65
2022/10/18 05:25:10;;;;;;;;;;;12.10;99.90;;;;;;5112438;27;1155;-65
2022/10/18 05:27:36;;;;;;;;;;;12.10;99.90;;;;;;5112212;28;1199;-65
2022/10/18 05:30:02;;;;;;;;;;;12.10;99.90;;;;;;5112924;28;1151;-65
2022/10/18 05:32:28;;;;;;;;;;;12.10;99.90;;;;;;5112545;28;1127;-65
2022/10/18 05:34:53;;;;;;;;;;;12.10;99.90;;;;;;5112667;27;965;-64
2022/10/18 05:37:20;;;;;;;;;;;12.10;99.90;;;;;;5111248;28;1972;-65
2022/10/18 05:39:46;;;;;;;;;;;12.00;99.90;;;;;;5112286;27;1155;-65
2022/10/18 05:42:11;;;;;;;;;;;11.90;99.90;;;;;;5112736;28;1040;-65
2022/10/18 05:44:37;;;;;;;;;;;11.90;99.90;;;;;;5111379;28;1107;-65
2022/10/18 05:47:03;;;;;;;;;;;11.80;99.90;;;;;;5111390;28;1329;-65
2022/10/18 05:49:28;;;;;;;;;;;11.80;99.90;;;;;;5112392;28;1107;-64
2022/10/18 05:51:54;;;;;;;;;;;11.80;99.90;;;;;;5112012;28;1205;-65
2022/10/18 05:54:20;;;;;;;;;;;11.80;99.90;;;;;;5112457;28;1096;-65
2022/10/18 05:56:45;;;;;;;;;;;11.80;99.90;;;;;;5112333;28;1914;-65
2022/10/18 05:59:11;;;;;;;;;;;11.80;99.90;;;;;;5111933;28;1238;-65
2022/10/18 06:01:37;;;;;;;;;;;11.70;99.90;;;;;;5112658;28;1107;-65
2022/10/18 06:04:03;;;;;;;;;;;11.70;99.90;;;;;;5109935;28;1125;-65
2022/10/18 06:06:29;;;;;;;;;;;11.60;99.90;;;;;;5111982;28;1068;-65
2022/10/18 06:08:55;;;;;;;;;;;11.60;99.90;;;;;;5112381;28;1145;-65
2022/10/18 06:11:21;;;;;;;;;;;11.60;99.90;;;;;;5110496;28;1175;-65
2022/10/18 06:13:47;;;;;;;;;;;11.60;99.90;;;;;;5111504;28;1060;-65
2022/10/18 06:16:14;;;;;;;;;;;11.50;99.90;;;;;;5111740;28;1921;-65
2022/10/18 06:18:40;;;;;;;;;;;11.50;99.90;;;;;;5111509;28;1111;-65
2022/10/18 06:21:05;;;;;;;;;;;11.40;99.90;;;;;;5110976;28;1137;-65
2022/10/18 06:23:31;;;;;;;;;;;11.40;99.90;;;;;;5110935;28;1127;-65
2022/10/18 06:25:57;;;;;;;;;;;11.30;99.90;;;;;;5111698;28;1158;-65
2022/10/18 06:28:23;;;;;;;;;;;11.30;99.90;;;;;;5109347;28;1088;-65
2022/10/18 06:30:49;;;;;;;;;;;11.20;99.90;;;;;;5111482;28;1127;-65
2022/10/18 06:33:14;;;;;;;;;;;11.10;99.90;;;;;;5109702;28;1119;-65
2022/10/18 06:35:40;;;;;;;;;;;11.10;99.90;;;;;;5110783;28;1257;-65
2022/10/18 06:38:05;;;;;;;;;;;11.10;99.90;;;;;;5111085;28;1985;-65
2022/10/18 06:40:36;;;;;;;;;;;11.10;99.90;;;;;;5111399;28;965;-65
2022/10/18 06:43:05;;;;;;;;;;;11.10;99.90;;;;;;5111142;28;1147;-65
2022/10/18 06:45:31;;;;;;;;;;;11.00;99.90;;;;;;5110764;28;1308;-65
2022/10/18 06:47:57;;;;;;;;;;;11.00;99.90;;;;;;5109306;28;1217;-65
2022/10/18 06:50:23;;;;;;;;;;;10.90;99.90;;;;;;5110808;28;1194;-65
2022/10/18 06:52:50;;;;;;;;;;;11.00;99.90;;;;;;5111314;28;1246;-65
2022/10/18 06:55:16;;;;;;;;;;;10.90;99.90;;;;;;5110134;28;1148;-65
2022/10/18 06:57:42;;;;;;;;;;;10.90;99.90;;;;;;5111505;28;2003;-65
2022/10/18 07:00:08;;;;;;;;;;;10.90;99.90;;;;;;5104459;28;3674;-63
2022/10/18 07:02:33;;;;;;;;;;;10.90;99.90;;;;;;5096758;28;3592;-64
2022/10/18 07:04:59;;;;;;;;;;;11.00;99.90;;;;;;5108943;28;1228;-64
2022/10/18 07:07:24;;;;;;;;;;;11.10;99.90;;;;;;5103133;28;3629;-64
2022/10/18 07:09:50;;;;;;;;;;;11.20;99.90;;;;;;5109936;28;1103;-64
2022/10/18 07:12:16;;;;;;;;;;;11.30;99.90;;;;;;5108759;28;1084;-64
2022/10/18 07:14:44;;;;;;;;;;;11.30;99.90;;;;;;5101128;28;1114;-64
2022/10/18 07:17:10;;;;;;;;;;;11.30;99.90;;;;;;5109608;28;1929;-64
2022/10/18 07:19:35;;;;;;;;;;;11.30;99.90;;;;;;5110254;28;3929;-64
2022/10/18 07:22:01;;;;;;;;;;;11.40;99.90;;;;;;5109127;28;1238;-64
2022/10/18 07:24:26;;;;;;;;;;;11.40;99.90;;;;;;5109570;28;1214;-64
2022/10/18 07:26:52;;;;;;;;;;;11.40;99.90;;;;;;5110670;28;1041;-64
2022/10/18 07:29:18;;;;;;;;;;;11.50;99.90;;;;;;5109707;27;1087;-64
2022/10/18 07:31:43;;;;;;;;;;;11.50;99.90;;;;;;5098903;28;1149;-64
2022/10/18 07:34:10;;;;;;;;;;;11.50;99.90;;;;;;5110192;28;1135;-64
2022/10/18 07:36:36;;;;;;;;;;;11.20;99.90;;;;;;5110510;28;1973;-64
2022/10/18 07:39:01;;;;;;;;;;;11.20;99.90;;;;;;5107550;28;1126;-64
2022/10/18 07:41:28;;;;;;;;;;;11.20;99.90;;;;;;5106654;28;1085;-64
2022/10/18 07:43:53;;;;;;;;;;;11.10;99.90;;;;;;5110006;28;1273;-64
2022/10/18 07:46:20;;;;;;;;;;;11.20;99.90;;;;;;5108515;28;1329;-64
2022/10/18 07:48:45;;;;;;;;;;;11.10;99.90;;;;;;5108761;28;1238;-64
2022/10/18 07:51:11;;;;;;;;;;;11.00;99.90;;;;;;5108671;28;1381;-64
2022/10/18 07:53:37;;;;;;;;;;;11.00;99.90;;;;;;5109813;28;1190;-64
2022/10/18 07:56:05;;;;;;;;;;;11.00;99.90;;;;;;5106234;28;1338;-64
2022/10/18 07:58:31;;;;;;;;;;;11.00;99.90;;;;;;5104622;28;1910;-64
2022/10/18 08:00:57;;;;;;;;;;;11.10;99.90;;;;;;5110165;28;1226;-64
2022/10/18 08:03:22;;;;;;;;;;;11.20;99.90;;;;;;5107670;28;3497;-64
2022/10/18 08:05:53;;;;;;;;;;;11.20;99.90;;;;;;5105411;28;3643;-64
2022/10/18 08:08:19;;;;;;;;;;;11.20;99.90;;;;;;5109246;28;1297;-64
2022/10/18 08:10:45;;;;;;;;;;;11.30;99.90;;;;;;5106398;28;3479;-64
2022/10/18 08:13:10;;;;;;;;;;;11.30;99.90;;;;;;5105634;28;1254;-64
2022/10/18 08:15:36;;;;;;;;;;;11.30;99.90;;;;;;5104121;28;3469;-64
2022/10/18 08:18:01;;;;;;;;;;;11.40;99.90;;;;;;5105089;28;3889;-64
2022/10/18 08:20:27;;;;;;;;;;;11.50;99.90;;;;;;5100355;28;3882;-64
2022/10/18 08:22:53;;;;;;;;;;;11.50;99.90;;;;;;5104400;28;3578;-64
2022/10/18 08:25:18;;;;;;;;;;;11.70;99.90;;;;;;5108705;28;1012;-64
2022/10/18 08:27:44;;;;;;;;;;;11.80;99.90;;;;;;5103750;28;3863;-64
2022/10/18 08:30:10;;;;;;;;;;;11.90;99.90;;;;;;5109173;28;1386;-64
2022/10/18 08:32:35;;;;;;;;;;;11.90;99.90;;;;;;5107587;28;1137;-64
2022/10/18 08:35:01;;;;;;;;;;;12.00;99.90;;;;;;5108504;28;1171;-64
2022/10/18 08:37:27;;;;;;;;;;;12.00;99.90;;;;;;5109109;28;1913;-64
2022/10/18 08:39:52;;;;;;;;;;;12.20;99.90;;;;;;5108190;28;3657;-64
2022/10/18 08:42:27;;;;;;;;;;;12.30;99.90;;;;;;5088109;28;1149;-64
2022/10/18 08:44:54;;;;;;;;;;;12.40;99.90;;;;;;5107807;28;1290;-64
2022/10/18 08:47:20;;;;;;;;;;;12.40;99.90;;;;;;5102314;28;1571;-64
2022/10/18 08:49:49;;;;;;;;;;;12.50;99.90;;;;;;5107105;28;1134;-64
2022/10/18 08:52:18;;;;;;;;;;;12.70;99.90;;;;;;5107676;28;1307;-64
2022/10/18 08:54:51;;;;;;;;;;;12.80;99.90;;;;;;5112341;28;1159;-64
2022/10/18 08:57:17;;;;;;;;;;;13.00;99.90;;;;;;5112246;28;1992;-64
2022/10/18 08:59:43;;;;;;;;;;;13.10;99.90;;;;;;5096562;28;1086;-64
2022/10/18 09:02:19;;;;;;;;;;;13.30;99.90;;;;;;5109373;28;2356;-65
2022/10/18 09:04:49;;;;;;;;;;;13.40;99.90;;;;;;5105744;28;1535;-64
2022/10/18 09:07:33;;;;;;;;;;;13.60;99.90;;;;;;5112532;28;1301;-64
2022/10/18 09:10:20;;;;;;;;;;;13.70;99.90;;;;;;5105444;28;1381;-65
2022/10/18 09:13:02;;;;;;;;;;;13.90;99.90;;;;;;5092481;27;3679;-64
2022/10/18 09:15:32;;;;;;;;;;;14.00;99.90;;;;;;5112874;28;1147;-65
2022/10/18 09:18:08;;;;;;;;;;;14.00;99.90;;;;;;5110429;28;3468;-64
2022/10/18 09:20:42;;;;;;;;;;;14.10;99.90;;;;;;5111650;28;3529;-64
2022/10/18 09:23:14;;;;;;;;;;;14.20;99.90;;;;;;5108021;28;3943;-64
2022/10/18 09:25:44;;;;;;;;;;;14.30;99.90;;;;;;5105140;28;3601;-64
2022/10/18 09:28:15;;;;;;;;;;;14.50;99.90;;;;;;5112845;28;1099;-65
2022/10/18 09:30:50;;;;;;;;;;;14.70;99.90;;;;;;5103696;28;3447;-65
2022/10/18 09:33:26;;;;;;;;;;;14.70;99.90;;;;;;5110839;28;1077;-64
2022/10/18 09:35:55;;;;;;;;;;;14.80;99.90;;;;;;5107845;28;1291;-65
2022/10/18 09:38:23;;;;;;;;;;;14.90;99.90;;;;;;5111707;28;1968;-65
2022/10/18 09:40:56;;;;;;;;;;;15.00;99.90;;;;;;5107254;28;1177;-65
2022/10/18 09:43:23;;;;;;;;;;;15.10;99.90;;;;;;5107362;27;3423;-65
2022/10/18 09:45:51;;;;;;;;;;;15.20;99.90;;;;;;5111557;28;1235;-65
2022/10/18 09:48:25;;;;;;;;;;;15.60;99.90;;;;;;5111538;28;1119;-65
2022/10/18 09:50:51;;;;;;;;;;;16.00;99.90;;;;;;5111398;28;1345;-65
2022/10/18 09:53:26;;;;;;;;;;;16.40;99.90;;;;;;5110266;28;1113;-65
2022/10/18 09:55:56;;;;;;;;;;;17.10;99.90;;;;;;5111021;28;1195;-65
2022/10/18 09:58:23;;;;;;;;;;;17.50;99.90;;;;;;5104858;28;1909;-65
2022/10/18 10:00:50;;;;;;;;;;;18.00;99.90;;;;;;5110689;28;1221;-65
2022/10/18 10:03:15;;;;;;;;;;;18.30;99.90;;;;;;5111561;28;1227;-65
2022/10/18 10:05:42;;;;;;;;;;;18.50;99.90;;;;;;5109428;28;1222;-65
2022/10/18 10:08:08;;;;;;;;;;;18.60;99.90;;;;;;5112053;28;1096;-65
2022/10/18 10:10:34;;;;;;;;;;;18.70;99.90;;;;;;5107807;28;3664;-65
2022/10/18 10:13:04;;;;;;;;;;;18.80;99.90;;;;;;5101349;28;3606;-65
2022/10/18 10:15:29;;;;;;;;;;;18.90;99.90;;;;;;5103454;28;1084;-65
2022/10/18 10:17:56;;;;;;;;;;;19.00;99.90;;;;;;5105364;28;3761;-65
2022/10/18 10:20:23;;;;;;;;;;;18.90;99.90;;;;;;5099083;28;1676;-65
2022/10/18 10:22:50;;;;;;;;;;;18.90;99.90;;;;;;5109745;28;1238;-65
2022/10/18 10:25:19;;;;;;;;;;;19.10;99.90;;;;;;5107842;28;1252;-65
2022/10/18 10:27:45;;;;;;;;;;;19.30;99.90;;;;;;5098363;28;3649;-65
2022/10/18 10:30:27;;;;;;;;;;;19.40;99.90;;;;;;5108472;28;3665;-65
2022/10/18 10:32:53;;;;;;;;;;;19.50;99.90;;;;;;5104110;28;1115;-65
2022/10/18 10:35:20;;;;;;;;;;;19.40;99.90;;;;;;5111540;28;3974;-65
2022/10/18 10:37:51;;;;;;;;;;;19.10;99.90;;;;;;5111035;27;1976;-65
2022/10/18 10:40:18;;;;;;;;;;;19.20;99.90;;;;;;5111181;27;1210;-65
2022/10/18 10:42:51;;;;;;;;;;;19.40;99.90;;;;;;5101387;28;1091;-65
2022/10/18 10:45:18;;;;;;;;;;;19.40;99.90;;;;;;5107889;28;1103;-65
2022/10/18 10:47:44;;;;;;;;;;;19.60;99.90;;;;;;5095488;28;3215;-65
2022/10/18 10:50:11;;;;;;;;;;;19.60;99.90;;;;;;5108327;27;3728;-65
2022/10/18 10:52:38;;;;;;;;;;;19.30;99.90;;;;;;5104024;28;3687;-65
2022/10/18 10:55:05;;;;;;;;;;;18.90;99.90;;;;;;5110513;28;1248;-65
2022/10/18 10:57:31;;;;;;;;;;;19.20;99.90;;;;;;5109907;28;3778;-65
2022/10/18 10:59:58;;;;;;;;;;;19.80;99.90;;;;;;5107053;28;3708;-65
2022/10/18 11:02:29;;;;;;;;;;;20.00;99.90;;;;;;5110868;28;1155;-65
2022/10/18 11:04:55;;;;;;;;;;;19.80;99.90;;;;;;5090993;28;3578;-65
2022/10/18 11:07:27;;;;;;;;;;;19.30;99.90;;;;;;5108365;28;1087;-65
2022/10/18 11:09:57;;;;;;;;;;;18.60;99.90;;;;;;5107421;28;1328;-65
2022/10/18 11:12:26;;;;;;;;;;;18.00;99.90;;;;;;5108547;28;1150;-65
2022/10/18 11:14:56;;;;;;;;;;;18.00;99.90;;;;;;5110560;28;1095;-65
2022/10/18 11:17:26;;;;;;;;;;;18.80;99.90;;;;;;5102133;28;3408;-65
2022/10/18 11:20:02;;;;;;;;;;;19.60;99.90;;;;;;5110814;28;1175;-65
2022/10/18 11:22:32;;;;;;;;;;;20.30;99.90;;;;;;5100462;27;1105;-65
2022/10/18 11:24:57;;;;;;;;;;;20.50;99.90;;;;;;5110961;28;1099;-65
2022/10/18 11:27:27;;;;;;;;;;;20.20;99.90;;;;;;5106776;27;1295;-65
2022/10/18 11:29:53;;;;;;;;;;;19.20;99.90;;;;;;5105867;28;960;-65
2022/10/18 11:32:25;;;;;;;;;;;18.20;99.90;;;;;;5110541;27;1104;-65
2022/10/18 11:34:56;;;;;;;;;;;18.10;99.90;;;;;;5110314;27;1019;-66
2022/10/18 11:37:37;;;;;;;;;;;19.00;99.90;;;;;;5109193;28;2020;-66
2022/10/18 11:40:03;;;;;;;;;;;19.90;99.90;;;;;;5109815;28;1194;-66
2022/10/18 11:42:28;;;;;;;;;;;20.10;99.50;;;;;;5110467;28;1119;-67
2022/10/18 11:44:55;;;;;;;;;;;19.90;99.90;;;;;;5107701;28;3636;-66
2022/10/18 11:47:28;;;;;;;;;;;19.60;99.90;;;;;;5099951;28;3652;-66
2022/10/18 11:49:59;;;;;;;;;;;19.00;99.90;;;;;;5107411;28;3762;-66
2022/10/18 11:52:34;;;;;;;;;;;18.90;99.90;;;;;;5103372;28;3544;-66
2022/10/18 11:55:05;;;;;;;;;;;19.10;99.90;;;;;;5107778;28;3622;-66
2022/10/18 11:57:36;;;;;;;;;;;18.50;99.90;;;;;;5106149;28;3915;-66
2022/10/18 12:00:12;;;;;;;;;;;18.00;99.90;;;;;;5110219;28;1150;-65
2022/10/18 12:02:41;;;;;;;;;;;18.40;99.90;;;;;;5106756;28;3586;-66
2022/10/18 12:05:07;;;;;;;;;;;19.40;99.90;;;;;;5116357;27;1209;-66
2022/10/18 12:07:35;;;;;;;;;;;20.10;99.90;;;;;;5107963;28;1317;-65
2022/10/18 12:10:01;;;;;;;;;;;20.50;98.00;;;;;;5110136;28;1345;-66
2022/10/18 12:12:30;;;;;;;;;;;20.30;98.40;;;;;;5108494;28;1255;-66
2022/10/18 12:14:55;;;;;;;;;;;19.40;99.90;;;;;;5093039;28;3598;-66
2022/10/18 12:17:35;;;;;;;;;;;18.40;99.90;;;;;;5109520;28;1905;-66
2022/10/18 12:20:05;;;;;;;;;;;18.40;99.90;;;;;;5107264;28;1167;-66
2022/10/18 12:22:31;;;;;;;;;;;19.30;99.90;;;;;;5107134;28;1158;-66
2022/10/18 12:24:56;;;;;;;;;;;20.00;99.90;;;;;;5105442;28;1151;-66
2022/10/18 12:27:27;;;;;;;;;;;20.60;99.60;;;;;;5107029;28;1270;-66
2022/10/18 12:29:55;;;;;;;;;;;20.40;97.50;;;;;;5108277;28;1141;-66
2022/10/18 12:32:23;;;;;;;;;;;19.80;98.70;;;;;;5108753;28;1109;-66
2022/10/18 12:34:51;;;;;;;;;;;19.70;99.80;;;;;;5108665;28;1107;-66
2022/10/18 12:37:26;;;;;;;;;;;20.20;99.30;;;;;;5108770;27;1910;-66
2022/10/18 12:39:54;;;;;;;;;;;20.60;97.80;;;;;;5108721;28;1091;-66
2022/10/18 12:42:23;;;;;;;;;;;20.90;96.50;;;;;;5108720;28;1238;-66
2022/10/18 12:44:48;;;;;;;;;;;20.70;95.80;;;;;;5106648;28;3728;-66
2022/10/18 12:47:22;;;;;;;;;;;20.60;95.20;;;;;;5100490;28;3776;-66
2022/10/18 12:49:55;;;;;;;;;;;21.00;94.80;;;;;;5117848;28;4036;-66
2022/10/18 12:52:21;;;;;;;;;;;21.50;94.40;;;;;;5105320;28;3634;-66
2022/10/18 12:55:02;;;;;;;;;;;22.00;93.20;;;;;;5104330;28;3540;-66
2022/10/18 12:57:48;;;;;;;;;;;21.90;93.20;;;;;;5101752;28;3668;-66
2022/10/18 13:00:27;;;;;;;;;;;21.70;93.20;;;;;;5109161;28;3812;-66
2022/10/18 13:03:15;;;;;;;;;;;21.80;93.70;;;;;;5106785;28;3543;-66
2022/10/18 13:05:47;;;;;;;;;;;22.10;92.30;;;;;;5104809;28;3588;-66
2022/10/18 13:08:26;;;;;;;;;;;21.80;92.40;;;;;;5104361;28;3897;-66
2022/10/18 13:11:11;;;;;;;;;;;20.60;93.70;;;;;;5108107;28;1297;-66
2022/10/18 13:13:44;;;;;;;;;;;19.30;96.80;;;;;;5107814;28;3406;-66
2022/10/18 13:16:09;;;;;;;;;;;18.30;98.80;;;;;;5107624;28;1202;-66
2022/10/18 13:18:40;;;;;;;;;;;17.90;99.90;;;;;;5108756;28;2040;-66
2022/10/18 13:21:14;;;;;;;;;;;17.70;99.90;;;;;;5107858;28;1262;-66
2022/10/18 13:23:46;;;;;;;;;;;18.60;99.90;;;;;;5103788;28;3154;-66
2022/10/18 13:26:22;;;;;;;;;;;19.30;98.90;;;;;;5099656;28;1157;-66
2022/10/18 13:28:53;;;;;;;;;;;20.00;98.00;;;;;;5108076;28;1159;-66
2022/10/18 13:31:24;;;;;;;;;;;20.60;96.70;;;;;;5095735;28;1107;-66
2022/10/18 13:33:50;;;;;;;;;;;20.70;96.70;;;;;;5108591;28;1131;-66
2022/10/18 13:36:15;;;;;;;;;;;20.90;95.50;;;;;;5108256;28;1174;-66
2022/10/18 13:38:56;;;;;;;;;;;21.10;95.30;;;;;;5107986;28;1968;-66
2022/10/18 13:41:22;;;;;;;;;;;21.30;93.80;;;;;;5108514;28;1116;-66
2022/10/18 13:43:51;;;;;;;;;;;21.20;94.20;;;;;;5111159;28;1197;-66
2022/10/18 13:46:19;;;;;;;;;;;21.10;94.60;;;;;;5112576;28;1143;-66
2022/10/18 13:48:45;;;;;;;;;;;21.00;94.10;;;;;;5112071;28;1180;-66
2022/10/18 13:51:27;;;;;;;;;;;20.70;94.80;;;;;;5107535;28;1354;-66
2022/10/18 13:54:00;;;;;;;;;;;20.20;95.20;;;;;;5105790;28;1191;-66
2022/10/18 13:56:33;;;;;;;;;;;19.90;95.30;;;;;;5105626;28;1990;-66
2022/10/18 13:59:10;;;;;;;;;;;20.10;95.80;;;;;;5108772;28;1207;-66
2022/10/18 14:01:41;;;;;;;;;;;20.60;95.10;;;;;;5107717;27;1492;-66
2022/10/18 14:04:22;;;;;;;;;;;20.90;93.00;;;;;;5110181;28;1111;-66
2022/10/18 14:06:49;;;;;;;;;;;20.90;92.90;;;;;;5106153;28;1110;-66
2022/10/18 14:09:20;;;;;;;;;;;20.80;93.40;;;;;;5111224;28;1176;-66
2022/10/18 14:11:54;;;;;;;;;;;20.90;93.80;;;;;;5110616;28;1590;-66
2022/10/18 14:14:25;;;;;;;;;;;21.00;93.90;;;;;;5112187;28;1155;-66
2022/10/18 14:16:50;;;;;;;;;;;20.90;93.30;;;;;;5112236;28;1909;-66
2022/10/18 14:19:20;;;;;;;;;;;20.70;93.90;;;;;;5110854;28;1188;-66
2022/10/18 14:21:52;;;;;;;;;;;20.80;93.20;;;;;;5111668;28;1127;-66
2022/10/18 14:24:20;;;;;;;;;;;20.90;93.10;;;;;;5107744;28;1254;-66
2022/10/18 14:26:45;;;;;;;;;;;20.70;93.00;;;;;;5110309;28;1265;-66
2022/10/18 14:29:18;;;;;;;;;;;20.60;93.20;;;;;;5112152;28;1095;-66
2022/10/18 14:31:51;;;;;;;;;;;20.60;93.10;;;;;;5112444;28;1155;-66
2022/10/18 14:34:17;;;;;;;;;;;20.50;93.30;;;;;;5111076;28;1118;-66
2022/10/18 14:36:44;;;;;;;;;;;20.70;93.60;;;;;;5111279;28;1967;-66